Time;durP1;ratioP1;P1;durP2;ratioP2;P2;SDS_P1;SDS_P2;PMS_P1;PMS_P2;Temp;Humidity;BMP_temperature;BMP_pressure;BME280_temperature;BME280_humidity;BME280_pressure;Samples;Min_cycle;Max_cycle;Signal;HPM_P1;HPM_P2
2024/03/02 00:00:15;;;;;;;5.55;2.80;;;16.00;99.90;;;;;;5031255;28;20092;-75
2024/03/02 00:02:45;;;;;;;5.43;2.50;;;16.00;99.90;;;;;;5033991;28;20024;-75
2024/03/02 00:05:15;;;;;;;5.55;2.63;;;16.00;99.90;;;;;;5032533;28;20489;-74
2024/03/02 00:07:43;;;;;;;6.85;2.72;;;16.00;99.90;;;;;;5032477;28;20385;-76
2024/03/02 00:10:11;;;;;;;5.43;2.80;;;16.00;99.90;;;;;;5033508;28;20544;-74
2024/03/02 00:12:38;;;;;;;4.47;2.65;;;16.00;99.90;;;;;;5033702;28;20041;-74
2024/03/02 00:15:06;;;;;;;;;;;16.00;99.90;;;;;;5032201;28;20029;-74
2024/03/02 00:17:32;;;;;;;6.38;2.30;;;16.00;99.90;;;;;;5033809;28;19913;-73
2024/03/02 00:19:58;;;;;;;5.60;2.70;;;16.00;99.90;;;;;;5033287;28;20029;-77
2024/03/02 00:22:24;;;;;;;4.43;2.17;;;16.00;99.90;;;;;;5032991;28;20033;-74
2024/03/02 00:24:50;;;;;;;3.50;2.13;;;16.00;99.90;;;;;;5032251;28;20367;-74
2024/03/02 00:27:19;;;;;;;4.63;2.27;;;16.00;99.90;;;;;;5032629;28;20341;-74
2024/03/02 00:29:45;;;;;;;4.22;2.17;;;16.10;99.90;;;;;;5031850;28;20275;-74
2024/03/02 00:32:16;;;;;;;6.35;2.58;;;16.10;99.90;;;;;;5033420;28;20580;-75
2024/03/02 00:34:43;;;;;;;5.63;2.80;;;16.10;99.90;;;;;;5032004;28;20048;-73
2024/03/02 00:37:09;;;;;;;6.72;2.42;;;16.10;99.90;;;;;;5031835;28;20079;-74
2024/03/02 00:39:35;;;;;;;5.18;2.33;;;16.10;99.90;;;;;;5064404;28;20068;-74
2024/03/02 00:42:01;;;;;;;4.10;2.25;;;16.00;99.90;;;;;;5031751;28;20445;-74
2024/03/02 00:44:29;;;;;;;4.13;2.27;;;16.10;99.90;;;;;;5031784;28;20057;-74
2024/03/02 00:46:55;;;;;;;4.65;2.13;;;16.00;99.90;;;;;;5031841;28;20079;-75
2024/03/02 00:49:26;;;;;;;4.37;2.27;;;16.00;99.90;;;;;;5031688;28;20471;-74
2024/03/02 00:51:53;;;;;;;3.65;1.80;;;16.00;99.90;;;;;;5030698;28;20132;-75
2024/03/02 00:54:29;;;;;;;4.75;1.70;;;16.00;99.90;;;;;;5032801;28;20364;-74
2024/03/02 00:56:56;;;;;;;4.75;1.92;;;16.00;99.90;;;;;;5033225;28;20049;-74
2024/03/02 00:59:23;;;;;;;4.80;2.33;;;16.00;99.90;;;;;;5032883;28;20029;-73
2024/03/02 01:01:49;;;;;;;3.03;1.58;;;15.90;99.90;;;;;;5031278;28;20096;-75
2024/03/02 01:04:15;;;;;;;3.60;1.70;;;15.90;99.90;;;;;;5032843;28;20033;-76
2024/03/02 01:06:45;;;;;;;2.85;1.77;;;15.90;99.90;;;;;;5017446;28;20492;-73
2024/03/02 01:09:12;;;;;;;2.03;1.33;;;15.90;99.90;;;;;;5032526;28;20026;-74
2024/03/02 01:11:38;;;;;;;3.65;1.60;;;15.90;99.90;;;;;;5031459;28;20103;-75
2024/03/02 01:14:04;;;;;;;3.42;1.52;;;15.90;99.90;;;;;;5031355;28;20029;-74
2024/03/02 01:16:30;;;;;;;3.00;1.42;;;15.90;99.90;;;;;;5031695;28;20037;-75
2024/03/02 01:18:56;;;;;;;3.40;1.48;;;15.90;99.90;;;;;;5031036;28;20056;-74
2024/03/02 01:21:22;;;;;;;2.90;1.37;;;15.90;99.90;;;;;;5032087;28;20063;-74
2024/03/02 01:23:48;;;;;;;2.87;1.70;;;15.80;99.90;;;;;;5030674;28;20111;-75
2024/03/02 01:26:14;;;;;;;2.50;1.40;;;15.80;99.90;;;;;;5030943;28;20273;-76
2024/03/02 01:28:39;;;;;;;2.03;1.27;;;15.80;99.90;;;;;;5031951;28;20026;-76
2024/03/02 01:31:05;;;;;;;2.73;1.40;;;15.80;99.90;;;;;;5030781;28;20048;-74
2024/03/02 01:33:31;;;;;;;2.07;1.47;;;15.80;99.90;;;;;;5030871;28;20025;-74
2024/03/02 01:35:57;;;;;;;2.27;1.20;;;15.80;99.90;;;;;;5031981;28;20100;-74
2024/03/02 01:38:23;;;;;;;2.83;1.40;;;15.80;99.90;;;;;;5031702;28;20029;-75
2024/03/02 01:40:48;;;;;;;1.93;1.40;;;15.80;99.90;;;;;;5031550;28;20056;-74
2024/03/02 01:43:14;;;;;;;2.67;1.30;;;15.80;99.90;;;;;;5031898;28;20060;-73
2024/03/02 01:45:41;;;;;;;2.10;1.60;;;15.80;99.90;;;;;;5030558;28;20072;-75
2024/03/02 01:48:07;;;;;;;2.78;1.20;;;15.80;99.90;;;;;;5030701;28;20627;-74
2024/03/02 01:50:33;;;;;;;2.28;0.95;;;15.80;99.90;;;;;;5030821;28;20032;-74
2024/03/02 01:53:00;;;;;;;2.47;1.27;;;15.70;99.90;;;;;;5031605;28;20049;-74
2024/03/02 01:55:27;;;;;;;2.88;1.27;;;15.70;99.90;;;;;;5030206;28;20045;-73
2024/03/02 01:57:54;;;;;;;1.65;0.90;;;15.70;99.90;;;;;;5031912;28;20021;-74
2024/03/02 02:00:25;;;;;;;2.47;1.33;;;15.70;99.90;;;;;;5031664;28;20804;-73
2024/03/02 02:02:51;;;;;;;2.03;1.20;;;15.70;99.90;;;;;;5030388;28;20045;-74
2024/03/02 02:05:17;;;;;;;3.15;1.10;;;15.70;99.90;;;;;;5030488;28;20462;-76
2024/03/02 02:07:43;;;;;;;1.70;1.40;;;15.70;99.90;;;;;;5031524;28;20033;-74
2024/03/02 02:10:10;;;;;;;3.60;1.23;;;15.60;99.90;;;;;;5063618;28;20068;-75
2024/03/02 02:12:36;;;;;;;4.57;1.10;;;15.60;99.90;;;;;;5031085;28;20254;-74
2024/03/02 02:15:03;;;;;;;1.65;0.98;;;15.60;99.90;;;;;;5029948;28;20694;-73
2024/03/02 02:17:29;;;;;;;;;;;15.60;99.90;;;;;;5030509;28;20057;-75
2024/03/02 02:19:54;;;;;;;1.83;1.10;;;15.60;99.90;;;;;;5028901;28;20697;-73
2024/03/02 02:22:20;;;;;;;1.67;1.03;;;15.60;99.90;;;;;;5030818;28;20255;-74
2024/03/02 02:24:46;;;;;;;1.17;0.87;;;15.60;99.90;;;;;;5030166;28;20383;-74
2024/03/02 02:27:14;;;;;;;1.67;1.03;;;15.60;99.90;;;;;;5029661;28;20022;-74
2024/03/02 02:29:41;;;;;;;1.42;0.90;;;15.60;99.90;;;;;;5029041;28;20054;-73
2024/03/02 02:32:07;;;;;;;1.02;0.73;;;15.50;99.90;;;;;;5023167;28;20119;-73
2024/03/02 02:34:33;;;;;;;0.97;0.80;;;15.60;99.90;;;;;;5062726;28;20093;-74
2024/03/02 02:37:00;;;;;;;6.38;1.13;;;15.50;99.90;;;;;;5062594;28;20035;-75
2024/03/02 02:39:26;;;;;;;1.38;0.80;;;15.60;99.90;;;;;;5060996;28;20495;-75
2024/03/02 02:41:51;;;;;;;5.90;1.03;;;15.50;99.90;;;;;;5029227;28;20033;-75
2024/03/02 02:44:17;;;;;;;1.40;0.90;;;15.50;99.90;;;;;;5029391;28;20502;-75
2024/03/02 02:46:43;;;;;;;2.70;0.80;;;15.50;99.90;;;;;;5029581;28;20494;-74
2024/03/02 02:49:09;;;;;;;1.87;0.87;;;15.50;99.90;;;;;;5062329;28;20033;-75
2024/03/02 02:51:34;;;;;;;2.93;1.10;;;15.50;99.90;;;;;;5028761;28;20040;-75
2024/03/02 02:54:00;;;;;;;1.13;0.60;;;15.50;99.90;;;;;;5030650;28;20041;-74
2024/03/02 02:56:26;;;;;;;1.00;0.73;;;15.50;99.90;;;;;;5029130;28;20037;-75
2024/03/02 02:58:52;;;;;;;1.73;1.10;;;15.50;99.90;;;;;;5062427;28;20029;-74
2024/03/02 03:01:18;;;;;;;0.60;0.60;;;15.50;99.90;;;;;;5029163;28;20112;-75
2024/03/02 03:03:44;;;;;;;1.03;0.73;;;15.50;99.90;;;;;;5061857;28;20113;-74
2024/03/02 03:06:10;;;;;;;0.98;0.60;;;15.50;99.90;;;;;;5062304;28;20297;-73
2024/03/02 03:08:36;;;;;;;1.02;0.60;;;15.40;99.90;;;;;;5062341;28;20509;-76
2024/03/02 03:11:02;;;;;;;1.17;0.77;;;15.40;99.90;;;;;;5062580;28;20119;-74
2024/03/02 03:13:28;;;;;;;1.07;0.70;;;15.40;99.90;;;;;;5016090;28;20056;-73
2024/03/02 03:15:54;;;;;;;0.68;0.63;;;15.40;99.90;;;;;;5030349;28;20025;-75
2024/03/02 03:18:19;;;;;;;1.17;0.77;;;15.40;99.90;;;;;;5060440;28;20509;-74
2024/03/02 03:20:45;;;;;;;0.73;0.67;;;15.40;99.90;;;;;;5029046;28;20033;-74
2024/03/02 03:23:15;;;;;;;0.90;0.60;;;15.40;99.90;;;;;;5062170;28;20033;-74
2024/03/02 03:25:41;;;;;;;1.48;0.60;;;15.40;99.90;;;;;;5030683;28;20044;-74
2024/03/02 03:28:09;;;;;;;1.50;0.70;;;15.40;99.90;;;;;;5061917;28;20470;-74
2024/03/02 03:30:37;;;;;;;0.98;0.57;;;15.30;99.90;;;;;;5015456;28;20033;-74
2024/03/02 03:33:05;;;;;;;1.17;0.70;;;15.30;99.90;;;;;;5029856;28;20392;-73
2024/03/02 03:35:31;;;;;;;1.58;0.85;;;15.30;99.90;;;;;;5031048;28;20036;-74
2024/03/02 03:37:57;;;;;;;1.08;0.60;;;15.30;99.90;;;;;;5034109;28;20112;-74
2024/03/02 03:40:23;;;;;;;1.50;0.70;;;15.30;99.90;;;;;;5032481;28;20129;-75
2024/03/02 03:42:50;;;;;;;1.60;0.67;;;15.30;99.90;;;;;;5032899;28;20021;-74
2024/03/02 03:45:16;;;;;;;0.82;0.50;;;15.30;99.90;;;;;;5066028;28;20083;-74
2024/03/02 03:47:42;;;;;;;0.90;0.57;;;15.30;99.90;;;;;;5066217;28;20483;-74
2024/03/02 03:50:08;;;;;;;0.90;0.60;;;15.30;99.90;;;;;;5066178;28;20039;-74
2024/03/02 03:52:34;;;;;;;0.85;0.57;;;15.30;99.90;;;;;;5031959;28;20060;-74
2024/03/02 03:55:00;;;;;;;1.20;0.60;;;15.30;99.90;;;;;;5034038;28;20430;-74
2024/03/02 03:57:26;;;;;;;1.05;0.60;;;15.30;99.90;;;;;;5065822;28;20029;-76
2024/03/02 03:59:53;;;;;;;1.05;0.63;;;15.30;99.90;;;;;;5032804;28;20475;-76
2024/03/02 04:02:19;;;;;;;;;;;15.30;99.90;;;;;;5032608;28;20030;-74
2024/03/02 04:04:45;;;;;;;0.93;0.63;;;15.20;99.90;;;;;;5033783;28;19958;-76
2024/03/02 04:07:11;;;;;;;0.93;0.75;;;15.20;99.90;;;;;;5033779;28;20071;-75
2024/03/02 04:09:37;;;;;;;0.90;0.60;;;15.20;99.90;;;;;;5065776;28;20046;-75
2024/03/02 04:12:03;;;;;;;0.77;0.40;;;15.20;99.90;;;;;;5033822;28;20470;-74
2024/03/02 04:14:29;;;;;;;1.03;0.60;;;15.20;99.90;;;;;;5065581;28;20266;-73
2024/03/02 04:16:55;;;;;;;0.90;0.50;;;15.20;99.90;;;;;;5063619;28;20574;-75
2024/03/02 04:19:21;;;;;;;0.80;0.50;;;15.20;99.90;;;;;;5065304;28;20470;-74
2024/03/02 04:21:47;;;;;;;0.65;0.50;;;15.20;99.90;;;;;;5033678;28;20036;-74
2024/03/02 04:24:13;;;;;;;1.37;0.90;;;15.20;99.90;;;;;;5032229;28;20029;-74
2024/03/02 04:26:39;;;;;;;0.53;0.40;;;15.20;99.90;;;;;;5032187;28;20076;-75
2024/03/02 04:29:05;;;;;;;0.43;0.40;;;15.20;99.90;;;;;;5031602;28;20297;-75
2024/03/02 04:31:31;;;;;;;1.37;0.60;;;15.10;99.90;;;;;;5033308;28;20030;-76
2024/03/02 04:33:56;;;;;;;0.57;0.53;;;15.10;99.90;;;;;;5033563;28;20091;-74
2024/03/02 04:36:23;;;;;;;3.33;0.53;;;15.10;99.90;;;;;;5031367;28;20112;-74
2024/03/02 04:38:49;;;;;;;;;;;15.10;99.90;;;;;;5032140;28;20033;-75
2024/03/02 04:41:15;;;;;;;0.80;0.40;;;15.10;99.90;;;;;;5031633;28;20011;-74
2024/03/02 04:43:41;;;;;;;1.13;0.52;;;15.10;99.90;;;;;;5031679;28;20119;-76
2024/03/02 04:46:07;;;;;;;1.10;0.43;;;15.10;99.90;;;;;;5032715;28;20545;-76
2024/03/02 04:48:34;;;;;;;0.80;0.50;;;15.10;99.90;;;;;;5031697;28;20258;-74
2024/03/02 04:51:00;;;;;;;1.35;0.60;;;15.10;99.90;;;;;;5033080;28;20029;-73
2024/03/02 04:53:26;;;;;;;0.65;0.40;;;15.10;99.90;;;;;;5030741;28;20056;-75
2024/03/02 04:56:09;;;;;;;0.53;0.53;;;15.10;99.90;;;;;;5032349;28;20029;-74
2024/03/02 04:58:36;;;;;;;0.57;0.40;;;15.10;99.90;;;;;;5064817;28;20029;-76
2024/03/02 05:01:02;;;;;;;1.10;0.40;;;15.00;99.90;;;;;;5031432;28;20021;-74
2024/03/02 05:03:28;;;;;;;0.77;0.40;;;15.00;99.90;;;;;;5064874;28;20039;-74
2024/03/02 05:05:54;;;;;;;0.67;0.40;;;15.00;99.90;;;;;;5032484;28;20358;-73
2024/03/02 05:08:20;;;;;;;0.30;0.30;;;15.00;99.90;;;;;;5032790;28;20471;-74
2024/03/02 05:10:46;;;;;;;2.00;0.40;;;15.10;99.90;;;;;;5064557;28;20030;-74
2024/03/02 05:13:11;;;;;;;1.50;0.40;;;15.00;99.90;;;;;;5019199;28;20095;-75
2024/03/02 05:15:37;;;;;;;3.00;0.40;;;15.00;99.90;;;;;;5064522;28;20033;-74
2024/03/02 05:18:05;;;;;;;0.70;0.50;;;15.00;99.90;;;;;;5030924;28;20056;-73
2024/03/02 05:20:30;;;;;;;0.75;0.50;;;15.00;99.90;;;;;;5033082;28;20494;-74
2024/03/02 05:22:56;;;;;;;0.40;0.40;;;15.00;99.90;;;;;;5032876;28;20061;-75
2024/03/02 05:25:22;;;;;;;0.97;0.30;;;15.00;99.90;;;;;;5064618;28;20540;-75
2024/03/02 05:27:48;;;;;;;0.50;0.40;;;15.00;99.90;;;;;;5031328;28;20022;-74
2024/03/02 05:30:14;;;;;;;0.73;0.40;;;14.90;99.90;;;;;;5030515;28;20720;-74
2024/03/02 05:32:40;;;;;;;0.32;0.32;;;14.90;99.90;;;;;;5030950;28;20037;-75
2024/03/02 05:35:07;;;;;;;0.52;0.40;;;14.90;99.90;;;;;;5030816;28;20037;-75
2024/03/02 05:37:33;;;;;;;0.20;0.20;;;14.90;99.90;;;;;;5064266;28;20505;-73
2024/03/02 05:39:59;;;;;;;0.40;0.40;;;14.90;99.90;;;;;;5030227;28;20038;-74
2024/03/02 05:42:26;;;;;;;0.30;0.30;;;14.90;99.90;;;;;;5063439;28;20038;-74
2024/03/02 05:44:53;;;;;;;0.43;0.38;;;14.90;99.90;;;;;;5030766;28;20026;-77
2024/03/02 05:47:19;;;;;;;0.45;0.40;;;14.80;99.90;;;;;;5064053;28;20068;-73
2024/03/02 05:49:45;;;;;;;0.73;0.40;;;14.80;99.90;;;;;;5030619;28;20053;-75
2024/03/02 05:52:12;;;;;;;1.30;0.40;;;14.80;99.90;;;;;;5063367;28;20071;-75
2024/03/02 05:54:38;;;;;;;0.70;0.50;;;14.80;99.90;;;;;;5031984;28;20370;-74
2024/03/02 05:57:22;;;;;;;0.30;0.30;;;14.80;99.90;;;;;;5029512;28;20045;-75
2024/03/02 05:59:47;;;;;;;0.50;0.40;;;14.80;99.90;;;;;;5018952;28;20026;-74
2024/03/02 06:02:13;;;;;;;0.67;0.67;;;14.80;99.90;;;;;;5030448;28;20030;-74
2024/03/02 06:04:39;;;;;;;0.20;0.20;;;14.80;99.90;;;;;;5030304;28;20088;-73
2024/03/02 06:07:05;;;;;;;0.77;0.50;;;14.80;99.90;;;;;;5031373;28;20103;-74
2024/03/02 06:09:31;;;;;;;0.30;0.30;;;14.80;99.90;;;;;;5029831;28;20030;-74
2024/03/02 06:11:57;;;;;;;0.50;0.30;;;14.80;99.90;;;;;;5063157;28;20029;-74
2024/03/02 06:14:22;;;;;;;0.97;0.50;;;14.80;99.90;;;;;;5031323;28;20282;-74
2024/03/02 06:16:48;;;;;;;0.50;0.30;;;14.70;99.90;;;;;;5031397;28;20143;-73
2024/03/02 06:19:15;;;;;;;0.57;0.30;;;14.70;99.90;;;;;;5030078;28;20086;-73
2024/03/02 06:21:41;;;;;;;0.73;0.40;;;14.70;99.90;;;;;;5058799;28;20048;-75
2024/03/02 06:24:07;;;;;;;0.30;0.30;;;14.70;99.90;;;;;;5063154;28;20042;-74
2024/03/02 06:26:32;;;;;;;0.53;0.47;;;14.70;99.90;;;;;;5031059;28;20337;-74
2024/03/02 06:28:58;;;;;;;0.57;0.33;;;14.70;99.90;;;;;;5030989;28;20113;-75
2024/03/02 06:31:25;;;;;;;0.20;0.20;;;14.70;99.90;;;;;;5031121;28;20029;-74
2024/03/02 06:33:50;;;;;;;;;;;14.70;99.90;;;;;;5031276;28;20025;-74
2024/03/02 06:36:17;;;;;;;0.40;0.30;;;14.70;99.90;;;;;;5030455;28;20391;-74
2024/03/02 06:38:42;;;;;;;1.00;0.20;;;14.70;99.90;;;;;;5029460;28;20291;-74
2024/03/02 06:41:08;;;;;;;1.13;0.57;;;14.70;99.90;;;;;;5030236;28;20265;-76
2024/03/02 06:43:34;;;;;;;0.67;0.43;;;14.70;99.90;;;;;;5030733;28;20029;-75
2024/03/02 06:46:01;;;;;;;1.73;0.50;;;14.70;99.90;;;;;;5030656;28;20026;-74
2024/03/02 06:48:28;;;;;;;0.77;0.30;;;14.70;99.90;;;;;;5029585;28;20025;-73
2024/03/02 06:50:55;;;;;;;0.20;0.20;;;14.70;99.90;;;;;;5030533;28;20032;-76
2024/03/02 06:53:22;;;;;;;0.20;0.10;;;14.70;99.90;;;;;;5062294;28;20052;-75
2024/03/02 06:55:48;;;;;;;2.90;0.40;;;14.70;99.90;;;;;;5028603;28;20486;-74
2024/03/02 06:58:15;;;;;;;1.60;0.40;;;14.70;99.90;;;;;;5030422;28;20108;-74
2024/03/02 07:00:42;;;;;;;0.47;0.25;;;14.70;99.90;;;;;;5062509;28;20025;-75
2024/03/02 07:03:08;;;;;;;0.30;0.30;;;14.70;99.90;;;;;;5030246;28;20580;-74
2024/03/02 07:05:34;;;;;;;0.52;0.45;;;14.80;99.90;;;;;;5030901;28;20037;-74
2024/03/02 07:08:02;;;;;;;0.10;0.10;;;14.80;99.90;;;;;;5029128;28;20505;-75
2024/03/02 07:10:28;;;;;;;1.25;0.35;;;15.00;99.90;;;;;;5029695;28;20037;-76
2024/03/02 07:12:54;;;;;;;0.80;0.30;;;15.10;99.90;;;;;;5028813;28;20021;-74
2024/03/02 07:18:04;;;;;;;0.60;0.20;;;15.20;99.90;;;;;;5030055;28;20046;-74
2024/03/02 07:20:30;;;;;;;1.65;0.40;;;15.40;99.90;;;;;;5029021;28;20040;-75
2024/03/02 07:22:56;;;;;;;1.35;0.30;;;15.60;99.90;;;;;;5029843;28;20034;-75
2024/03/02 07:25:22;;;;;;;0.40;0.30;;;15.80;99.90;;;;;;5062395;28;20037;-76
2024/03/02 07:27:48;;;;;;;0.47;0.33;;;15.90;99.90;;;;;;5028272;28;20029;-75
2024/03/02 07:30:16;;;;;;;0.63;0.33;;;16.00;99.90;;;;;;5030173;28;20037;-75
2024/03/02 07:32:45;;;;;;;0.40;0.40;;;16.20;99.90;;;;;;5030252;28;20026;-76
2024/03/02 07:35:13;;;;;;;0.40;0.28;;;16.50;99.90;;;;;;5028725;28;20483;-73
2024/03/02 07:37:39;;;;;;;0.63;0.30;;;16.50;99.90;;;;;;5028692;28;20036;-77
2024/03/02 07:40:09;;;;;;;0.50;0.32;;;16.50;99.90;;;;;;5061960;28;20033;-74
2024/03/02 07:42:35;;;;;;;0.17;0.10;;;16.70;99.90;;;;;;5016436;28;20045;-75
2024/03/02 07:45:00;;;;;;;1.17;0.30;;;16.70;99.90;;;;;;5018002;28;20030;-75
2024/03/02 07:47:26;;;;;;;0.30;0.30;;;16.60;99.90;;;;;;5028314;28;20419;-74
2024/03/02 07:49:52;;;;;;;0.30;0.30;;;16.60;99.90;;;;;;5030579;28;20109;-74
2024/03/02 07:52:18;;;;;;;0.20;0.20;;;16.60;99.90;;;;;;5029445;28;20081;-74
2024/03/02 07:54:44;;;;;;;0.70;0.33;;;16.50;99.90;;;;;;5051222;28;20127;-74
2024/03/02 07:57:10;;;;;;;1.00;0.20;;;16.50;99.90;;;;;;5029703;28;20056;-76
2024/03/02 07:59:37;;;;;;;0.50;0.40;;;16.50;99.90;;;;;;5030252;28;20029;-75
2024/03/02 08:02:03;;;;;;;0.82;0.20;;;16.50;99.90;;;;;;5029976;28;20068;-74
2024/03/02 08:04:29;;;;;;;0.20;0.20;;;16.50;99.90;;;;;;5029696;28;20029;-75
2024/03/02 08:06:55;;;;;;;0.32;0.30;;;16.60;99.90;;;;;;5056971;28;20041;-75
2024/03/02 08:09:21;;;;;;;1.75;0.30;;;16.70;99.90;;;;;;5028754;28;20116;-75
2024/03/02 08:11:47;;;;;;;0.27;0.20;;;16.80;99.90;;;;;;5028412;28;20286;-74
2024/03/02 08:14:13;;;;;;;0.20;0.20;;;17.20;99.90;;;;;;5028365;28;20274;-74
2024/03/02 08:16:40;;;;;;;0.83;0.40;;;17.60;99.90;;;;;;5029784;28;20474;-73
2024/03/02 08:19:07;;;;;;;0.98;0.30;;;18.90;99.90;;;;;;5029794;28;20273;-73
2024/03/02 08:21:35;;;;;;;0.55;0.32;;;20.00;99.90;;;;;;5031479;28;20048;-75
2024/03/02 08:24:02;;;;;;;1.80;0.40;;;20.50;99.90;;;;;;5032378;28;20063;-73
2024/03/02 08:26:31;;;;;;;4.18;0.50;;;20.90;99.90;;;;;;5033213;28;20048;-74
2024/03/02 08:29:01;;;;;;;0.80;0.30;;;20.90;99.70;;;;;;5064897;28;20056;-75
2024/03/02 08:31:28;;;;;;;0.43;0.40;;;21.00;99.50;;;;;;5033044;28;20036;-74
2024/03/02 08:33:54;;;;;;;1.80;0.40;;;21.10;99.60;;;;;;5031633;28;20061;-75
2024/03/02 08:36:20;;;;;;;4.60;0.60;;;21.10;99.50;;;;;;5032965;28;20573;-75
2024/03/02 08:38:46;;;;;;;3.08;0.60;;;21.30;99.20;;;;;;5064820;28;20041;-73
2024/03/02 08:41:13;;;;;;;2.75;0.93;;;21.40;99.20;;;;;;5033269;28;20804;-72
2024/03/02 08:43:42;;;;;;;4.75;0.40;;;21.10;99.40;;;;;;5030750;28;20450;-76
2024/03/02 08:46:08;;;;;;;3.10;0.50;;;21.00;99.60;;;;;;5045027;28;20085;-73
2024/03/02 08:48:34;;;;;;;2.95;0.50;;;20.80;99.70;;;;;;5026535;28;20089;-73
2024/03/02 08:51:00;;;;;;;;;;;21.00;99.50;;;;;;5065440;28;20040;-73
2024/03/02 08:53:26;;;;;;;1.25;0.40;;;20.70;99.80;;;;;;5033056;28;19920;-74
2024/03/02 08:55:52;;;;;;;3.75;0.60;;;20.40;99.90;;;;;;5064305;28;20398;-74
2024/03/02 08:58:18;;;;;;;1.33;0.80;;;20.30;99.90;;;;;;5032653;28;20025;-72
2024/03/02 09:00:44;;;;;;;3.22;0.50;;;20.40;99.90;;;;;;5064179;28;20327;-73
2024/03/02 09:03:10;;;;;;;0.65;0.47;;;20.30;99.90;;;;;;5040438;28;20037;-74
2024/03/02 09:05:36;;;;;;;5.85;0.68;;;19.70;99.90;;;;;;5031052;28;20036;-73
2024/03/02 09:08:03;;;;;;;5.82;0.65;;;19.20;99.90;;;;;;5030938;28;20071;-72
2024/03/02 09:10:29;;;;;;;2.55;0.32;;;18.90;99.90;;;;;;5032111;28;20516;-74
2024/03/02 09:12:55;;;;;;;2.83;0.60;;;18.80;99.90;;;;;;5020205;28;20025;-75
2024/03/02 09:15:21;;;;;;;2.55;0.57;;;19.00;99.90;;;;;;5022227;28;20282;-72
2024/03/02 09:17:47;;;;;;;2.67;0.60;;;18.90;99.90;;;;;;5032197;28;20471;-74
2024/03/02 09:20:13;;;;;;;2.58;0.45;;;19.40;99.90;;;;;;5032016;28;20013;-73
2024/03/02 09:22:39;;;;;;;6.65;0.65;;;20.40;99.90;;;;;;5031952;28;20040;-73
2024/03/02 09:25:08;;;;;;;2.55;0.40;;;21.50;99.20;;;;;;5032043;28;20022;-74
2024/03/02 09:27:39;;;;;;;4.95;0.60;;;22.10;98.80;;;;;;5032154;28;20025;-73
2024/03/02 09:30:10;;;;;;;0.63;0.40;;;22.20;98.40;;;;;;5032020;28;20080;-73
2024/03/02 09:32:37;;;;;;;1.83;0.63;;;22.00;98.80;;;;;;5030969;28;20131;-73
2024/03/02 09:35:03;;;;;;;2.70;0.60;;;21.60;98.90;;;;;;5031169;28;20029;-73
2024/03/02 09:37:29;;;;;;;4.13;0.52;;;21.60;98.90;;;;;;5031952;28;20029;-73
2024/03/02 09:39:55;;;;;;;4.30;0.45;;;21.00;99.40;;;;;;5031966;28;20481;-73
2024/03/02 09:42:22;;;;;;;5.72;0.65;;;20.40;99.90;;;;;;5031706;28;20017;-73
2024/03/02 09:44:48;;;;;;;;;;;20.10;99.90;;;;;;5032422;28;20697;-74
2024/03/02 09:47:14;;;;;;;3.60;0.82;;;19.70;99.90;;;;;;5031554;28;19909;-73
2024/03/02 09:49:40;;;;;;;1.88;0.30;;;19.40;99.90;;;;;;5031824;28;20044;-73
2024/03/02 09:52:07;;;;;;;2.58;0.43;;;19.40;99.90;;;;;;5027492;28;20057;-71
2024/03/02 09:54:33;;;;;;;1.63;0.47;;;19.40;99.90;;;;;;5029283;28;20478;-73
2024/03/02 09:57:01;;;;;;;2.97;0.93;;;19.50;99.90;;;;;;5031218;28;20112;-74
2024/03/02 09:59:28;;;;;;;2.92;0.47;;;19.40;99.90;;;;;;5051648;28;20457;-71
2024/03/02 10:01:59;;;;;;;4.50;0.50;;;19.20;99.90;;;;;;5030021;28;20483;-75
2024/03/02 10:04:31;;;;;;;2.45;0.50;;;19.20;99.90;;;;;;5063296;28;20112;-74
2024/03/02 10:07:15;;;;;;;2.75;0.90;;;19.10;99.90;;;;;;5031566;28;20035;-73
2024/03/02 10:09:42;;;;;;;5.57;0.50;;;19.20;99.90;;;;;;5031331;28;20029;-73
2024/03/02 10:12:11;;;;;;;2.78;0.60;;;19.30;99.90;;;;;;5057393;28;20041;-72
2024/03/02 10:14:37;;;;;;;6.47;0.68;;;19.60;99.90;;;;;;5031208;28;20033;-73
2024/03/02 10:17:04;;;;;;;1.88;0.50;;;20.50;99.90;;;;;;5063141;28;20044;-72
2024/03/02 10:19:32;;;;;;;;;;;21.50;99.30;;;;;;5063189;28;20120;-73
2024/03/02 10:21:59;;;;;;;0.98;0.60;;;21.80;98.70;;;;;;5031397;28;19908;-72
2024/03/02 10:24:25;;;;;;;;;;;21.90;98.80;;;;;;5031457;28;20095;-73
2024/03/02 10:26:52;;;;;;;3.30;0.73;;;21.70;98.60;;;;;;5031462;28;19905;-73
2024/03/02 10:29:18;;;;;;;4.88;0.80;;;22.50;98.10;;;;;;5028809;28;20123;-73
2024/03/02 10:31:48;;;;;;;;;;;23.60;96.80;;;;;;5058325;28;20025;-75
2024/03/02 10:34:16;;;;;;;11.32;0.80;;;24.00;96.30;;;;;;5058570;28;19991;-74
2024/03/02 10:36:43;;;;;;;3.55;0.90;;;24.20;96.10;;;;;;5029015;28;20117;-74
2024/03/02 10:39:09;;;;;;;6.07;1.10;;;24.00;96.10;;;;;;5062620;28;20034;-76
2024/03/02 10:41:38;;;;;;;6.20;0.52;;;23.70;96.30;;;;;;5031300;28;20025;-76
2024/03/02 10:44:09;;;;;;;6.18;0.50;;;22.80;97.00;;;;;;5029849;28;20514;-74
2024/03/02 10:46:37;;;;;;;3.65;0.70;;;21.60;98.70;;;;;;5031138;28;20079;-74
2024/03/02 10:49:04;;;;;;;2.05;0.52;;;20.60;99.90;;;;;;5029956;28;20026;-75
2024/03/02 10:51:32;;;;;;;3.28;0.75;;;20.20;99.90;;;;;;5021535;28;20080;-75
2024/03/02 10:54:00;;;;;;;0.75;0.60;;;20.40;99.90;;;;;;5058313;28;20029;-75
2024/03/02 10:56:34;;;;;;;1.95;0.60;;;20.60;99.90;;;;;;5030399;28;20029;-73
2024/03/02 10:59:06;;;;;;;4.70;0.75;;;20.60;99.90;;;;;;5030031;28;20449;-74
2024/03/02 11:01:33;;;;;;;1.10;0.40;;;20.70;99.90;;;;;;5061896;28;20482;-74
2024/03/02 11:04:02;;;;;;;2.60;0.68;;;21.80;99.80;;;;;;5029956;28;20445;-73
2024/03/02 11:06:32;;;;;;;1.25;0.50;;;23.60;97.80;;;;;;5030386;28;20034;-72
2024/03/02 11:09:03;;;;;;;3.67;0.40;;;24.80;96.20;;;;;;5029923;28;20394;-73
2024/03/02 11:11:34;;;;;;;2.53;0.70;;;24.10;96.70;;;;;;5062461;28;20180;-74
2024/03/02 11:14:08;;;;;;;5.70;0.70;;;24.50;96.40;;;;;;5030108;28;20029;-73
2024/03/02 11:16:39;;;;;;;2.33;0.50;;;24.90;95.90;;;;;;5049155;28;20204;-72
2024/03/02 11:19:14;;;;;;;1.50;0.38;;;24.90;95.60;;;;;;5030186;28;20029;-74
2024/03/02 11:21:40;;;;;;;2.28;0.60;;;23.30;96.80;;;;;;5027624;28;20029;-72
2024/03/02 11:24:21;;;;;;;2.17;0.70;;;22.90;97.60;;;;;;5029424;28;20307;-74
2024/03/02 11:26:47;;;;;;;4.68;0.60;;;23.50;97.30;;;;;;5028477;28;20120;-74
2024/03/02 11:29:35;;;;;;;3.88;0.65;;;23.70;96.70;;;;;;5028360;28;20043;-74
2024/03/02 11:32:02;;;;;;;2.63;0.60;;;23.50;96.80;;;;;;5049215;28;20029;-75
2024/03/02 11:34:32;;;;;;;1.75;0.60;;;23.60;96.60;;;;;;5030130;28;20022;-75
2024/03/02 11:37:01;;;;;;;3.53;0.60;;;23.90;96.00;;;;;;5062239;28;20037;-74
2024/03/02 11:39:30;;;;;;;4.07;1.13;;;23.20;96.50;;;;;;5029914;28;20021;-74
2024/03/02 11:41:57;;;;;;;3.50;0.80;;;22.30;97.70;;;;;;5028704;28;20060;-74
2024/03/02 11:44:27;;;;;;;2.67;0.77;;;22.00;98.10;;;;;;5030023;28;20558;-73
2024/03/02 11:46:59;;;;;;;4.25;0.80;;;21.60;98.70;;;;;;5062008;28;20078;-74
2024/03/02 11:49:47;;;;;;;4.45;0.98;;;21.30;99.20;;;;;;5062731;28;20029;-74
2024/03/02 11:52:15;;;;;;;2.67;0.88;;;21.40;99.30;;;;;;5036746;28;20052;-75
2024/03/02 11:54:51;;;;;;;6.05;0.98;;;21.50;99.20;;;;;;5030459;28;20544;-75
2024/03/02 11:57:31;;;;;;;3.30;0.80;;;21.40;99.20;;;;;;5038022;28;20029;-75
2024/03/02 11:59:59;;;;;;;4.93;1.17;;;21.30;99.00;;;;;;5027624;28;20069;-74
2024/03/02 12:02:25;;;;;;;5.63;0.93;;;21.30;99.60;;;;;;5036524;28;20095;-74
2024/03/02 12:04:51;;;;;;;6.23;0.77;;;21.10;99.40;;;;;;5038516;28;20029;-73
2024/03/02 12:07:23;;;;;;;2.05;0.80;;;20.90;99.80;;;;;;5069743;28;20316;-74
2024/03/02 12:09:59;;;;;;;2.28;0.73;;;20.80;99.60;;;;;;5037597;28;20033;-77
2024/03/02 12:12:26;;;;;;;4.47;0.77;;;20.90;99.80;;;;;;5070527;28;20815;-75
2024/03/02 12:14:55;;;;;;;4.28;1.25;;;20.90;99.90;;;;;;5035439;28;20030;-73
2024/03/02 12:17:21;;;;;;;2.65;0.80;;;21.00;99.90;;;;;;5033001;28;20033;-76
2024/03/02 12:19:47;;;;;;;;;;;21.10;99.90;;;;;;5033188;28;20029;-74
2024/03/02 12:22:15;;;;;;;2.53;0.70;;;21.20;99.80;;;;;;5032713;28;19909;-74
2024/03/02 12:24:45;;;;;;;1.35;0.70;;;21.30;99.70;;;;;;5022317;28;20034;-75
2024/03/02 12:27:12;;;;;;;6.30;0.68;;;21.20;99.90;;;;;;5033614;28;20537;-74
2024/03/02 12:29:38;;;;;;;2.92;1.45;;;21.10;99.90;;;;;;5033167;28;20030;-75
2024/03/02 12:32:05;;;;;;;6.30;0.88;;;21.00;99.90;;;;;;5032970;28;20474;-74
2024/03/02 12:34:34;;;;;;;3.08;0.98;;;20.90;99.90;;;;;;5033169;28;20156;-72
2024/03/02 12:37:00;;;;;;;6.68;0.73;;;20.80;99.90;;;;;;5031785;28;20032;-74
2024/03/02 12:39:27;;;;;;;2.47;0.60;;;20.80;99.90;;;;;;5038777;28;20026;-73
2024/03/02 12:41:53;;;;;;;3.67;1.05;;;20.80;99.90;;;;;;5056018;28;20518;-75
2024/03/02 12:44:20;;;;;;;1.80;0.77;;;20.80;99.90;;;;;;5032797;28;20032;-74
2024/03/02 12:46:46;;;;;;;4.05;0.60;;;20.80;99.90;;;;;;5063001;28;20075;-77
2024/03/02 12:49:15;;;;;;;4.80;0.52;;;20.80;99.90;;;;;;5031235;28;20017;-72
2024/03/02 12:51:42;;;;;;;1.80;0.50;;;20.80;99.90;;;;;;5032470;28;20379;-73